createdAt,value
2018-09-03T00:01:12.570Z,23.20
2018-09-03T00:03:40.931Z,23.20
2018-09-03T00:06:09.285Z,23.20
2018-09-03T00:08:37.754Z,23.20
2018-09-03T00:11:06.126Z,23.20
2018-09-03T00:13:34.547Z,23.20
2018-09-03T00:16:02.894Z,23.30
2018-09-03T00:18:31.377Z,23.20
2018-09-03T00:20:59.758Z,23.20
2018-09-03T00:23:28.154Z,23.20
2018-09-03T00:25:56.515Z,23.20
2018-09-03T00:28:25.554Z,23.20
2018-09-03T00:30:58.129Z,23.20
2018-09-03T00:33:31.975Z,23.10
2018-09-03T00:36:05.766Z,23.00
2018-09-03T00:38:39.411Z,23.00
2018-09-03T00:41:13.026Z,22.90
2018-09-03T00:43:47.012Z,22.80
2018-09-03T00:46:20.688Z,22.70
2018-09-03T00:48:49.396Z,22.70
2018-09-03T00:51:18.192Z,22.60
2018-09-03T00:53:46.660Z,22.50
2018-09-03T00:56:15.069Z,22.50
2018-09-03T00:58:43.431Z,22.50
2018-09-03T01:01:11.819Z,22.40
2018-09-03T01:03:40.380Z,22.40
2018-09-03T01:06:08.999Z,22.30
2018-09-03T01:08:37.364Z,22.40
2018-09-03T01:11:06.716Z,22.30
2018-09-03T01:13:35.091Z,22.30
2018-09-03T01:16:03.521Z,22.30
2018-09-03T01:18:36.135Z,22.30
2018-09-03T01:21:04.598Z,22.30
2018-09-03T01:23:32.953Z,22.30
2018-09-03T01:26:01.364Z,22.30
2018-09-03T01:28:29.796Z,22.30
2018-09-03T01:30:58.530Z,22.30
2018-09-03T01:33:26.859Z,22.30
2018-09-03T01:35:55.342Z,22.20
2018-09-03T01:38:23.711Z,22.30
2018-09-03T01:40:52.119Z,22.20
2018-09-03T01:43:20.449Z,22.20
2018-09-03T01:45:48.949Z,22.20
2018-09-03T01:48:17.436Z,22.20
2018-09-03T01:50:45.821Z,22.20
2018-09-03T01:53:14.204Z,22.20
2018-09-03T01:55:42.552Z,22.20
2018-09-03T01:58:10.912Z,22.20
2018-09-03T02:00:39.302Z,22.20
2018-09-03T02:03:07.644Z,22.20
2018-09-03T02:05:36.078Z,22.20
2018-09-03T02:08:04.829Z,22.20
2018-09-03T02:10:33.174Z,22.20
2018-09-03T02:13:01.688Z,22.20
2018-09-03T02:15:30.027Z,22.20
2018-09-03T02:17:58.479Z,22.20
2018-09-03T02:20:26.868Z,22.20
2018-09-03T02:22:55.373Z,22.20
2018-09-03T02:25:23.817Z,22.20
2018-09-03T02:27:52.246Z,22.20
2018-09-03T02:30:20.744Z,22.20
2018-09-03T02:32:49.156Z,22.10
2018-09-03T02:35:17.523Z,22.10
2018-09-03T02:37:45.956Z,22.10
2018-09-03T02:40:14.310Z,22.10
2018-09-03T02:42:42.705Z,22.10
2018-09-03T02:45:11.462Z,22.10
2018-09-03T02:47:39.968Z,22.10
2018-09-03T02:50:08.753Z,22.00
2018-09-03T02:52:37.619Z,22.00
2018-09-03T02:55:06.730Z,22.00
2018-09-03T02:57:35.132Z,22.00
2018-09-03T03:00:03.652Z,22.00
2018-09-03T03:02:32.018Z,22.00
2018-09-03T03:05:00.634Z,22.00
2018-09-03T03:07:29.114Z,22.00
2018-09-03T03:09:57.528Z,22.00
2018-09-03T03:12:26.515Z,22.00
2018-09-03T03:14:56.332Z,22.00
2018-09-03T03:17:25.011Z,22.00
2018-09-03T03:19:53.388Z,22.00
2018-09-03T03:22:21.772Z,22.00
2018-09-03T03:24:50.423Z,22.00
2018-09-03T03:27:18.832Z,22.00
2018-09-03T03:29:47.311Z,21.90
2018-09-03T03:32:15.683Z,22.00
2018-09-03T03:34:44.075Z,21.90
2018-09-03T03:37:12.436Z,21.90
2018-09-03T03:39:40.798Z,21.90
2018-09-03T03:42:09.256Z,21.90
2018-09-03T03:44:37.690Z,21.90
2018-09-03T03:47:06.219Z,21.90
2018-09-03T03:49:34.613Z,21.90
2018-09-03T03:52:03.215Z,21.90
2018-09-03T03:54:31.675Z,21.80
2018-09-03T03:57:00.057Z,21.80
2018-09-03T03:59:28.417Z,21.80
2018-09-03T04:01:56.864Z,21.70
2018-09-03T04:04:25.213Z,21.70
2018-09-03T04:06:53.714Z,21.60
2018-09-03T04:09:22.126Z,21.60
2018-09-03T04:11:50.480Z,21.50
2018-09-03T04:14:18.850Z,21.60
2018-09-03T04:16:47.686Z,21.50
2018-09-03T04:19:16.091Z,21.50
2018-09-03T04:21:44.993Z,21.60
2018-09-03T04:24:13.756Z,21.50
2018-09-03T04:26:42.126Z,21.60
2018-09-03T04:29:10.493Z,21.60
2018-09-03T04:31:38.988Z,21.50
2018-09-03T04:34:07.375Z,21.50
2018-09-03T04:36:35.783Z,21.60
2018-09-03T04:39:06.416Z,21.60
2018-09-03T04:41:34.852Z,21.50
2018-09-03T04:44:04.011Z,21.50
2018-09-03T04:46:32.855Z,21.50
2018-09-03T04:49:01.534Z,21.50
2018-09-03T04:51:30.310Z,21.50
2018-09-03T04:53:58.885Z,21.50
2018-09-03T04:56:28.016Z,21.60
2018-09-03T04:58:56.405Z,21.60
2018-09-03T05:01:25.054Z,21.60
2018-09-03T05:03:53.551Z,21.60
2018-09-03T05:06:21.942Z,21.60
2018-09-03T05:08:50.620Z,21.60
2018-09-03T05:11:19.515Z,21.60
2018-09-03T05:13:48.182Z,21.60
2018-09-03T05:16:16.631Z,21.50
2018-09-03T05:18:44.979Z,21.50
2018-09-03T05:21:13.355Z,21.50
2018-09-03T05:23:41.914Z,21.50
2018-09-03T05:26:10.560Z,21.50
2018-09-03T05:28:39.071Z,21.50
2018-09-03T05:31:07.491Z,21.50
2018-09-03T05:33:35.876Z,21.50
2018-09-03T05:36:04.250Z,21.50
2018-09-03T05:38:32.623Z,21.50
2018-09-03T05:41:01.285Z,21.40
2018-09-03T05:43:29.816Z,21.40
2018-09-03T05:45:58.346Z,21.40
2018-09-03T05:48:27.085Z,21.50
2018-09-03T05:50:55.893Z,21.40
2018-09-03T05:53:24.561Z,21.40
2018-09-03T05:55:53.584Z,21.50
2018-09-03T05:58:22.219Z,21.50
2018-09-03T06:00:51.000Z,21.50
2018-09-03T06:03:19.500Z,21.40
2018-09-03T06:05:48.107Z,21.40
2018-09-03T06:08:16.745Z,21.40
2018-09-03T06:10:45.419Z,21.50
2018-09-03T06:13:14.397Z,21.50
2018-09-03T06:15:42.985Z,21.50
2018-09-03T06:18:11.471Z,21.50
2018-09-03T06:20:39.811Z,21.50
2018-09-03T06:23:09.178Z,21.50
2018-09-03T06:25:37.838Z,21.50
2018-09-03T06:28:06.430Z,21.50
2018-09-03T06:30:35.382Z,21.50
2018-09-03T06:33:03.967Z,21.50
2018-09-03T06:35:32.441Z,21.50
2018-09-03T06:38:00.856Z,21.50
2018-09-03T06:40:29.499Z,21.60
2018-09-03T06:42:57.941Z,21.70
2018-09-03T06:45:26.507Z,21.70
2018-09-03T06:47:55.040Z,21.70
2018-09-03T06:50:23.890Z,21.70
2018-09-03T06:52:52.770Z,21.80
2018-09-03T06:55:21.512Z,21.80
2018-09-03T06:57:49.951Z,21.80
2018-09-03T07:00:19.290Z,21.80
2018-09-03T07:02:48.030Z,21.80
2018-09-03T07:05:17.119Z,21.80
2018-09-03T07:07:45.782Z,21.80
2018-09-03T07:10:14.535Z,21.80
2018-09-03T07:12:43.555Z,21.80
2018-09-03T07:15:12.274Z,21.80
2018-09-03T07:17:41.044Z,21.80
2018-09-03T07:20:09.564Z,21.80
2018-09-03T07:22:37.978Z,21.80
2018-09-03T07:25:06.461Z,21.80
2018-09-03T07:27:35.027Z,21.70
2018-09-03T07:30:03.519Z,21.80
2018-09-03T07:32:31.886Z,21.80
2018-09-03T07:35:00.280Z,21.80
2018-09-03T07:37:28.648Z,21.80
2018-09-03T07:39:57.146Z,21.80
2018-09-03T07:42:25.554Z,21.80
2018-09-03T07:44:54.279Z,21.80
2018-09-03T07:47:22.625Z,21.80
2018-09-03T07:49:50.967Z,21.80
2018-09-03T07:52:19.432Z,21.80
2018-09-03T07:54:47.910Z,21.80
2018-09-03T07:57:16.304Z,21.90
2018-09-03T07:59:44.801Z,22.00
2018-09-03T08:02:13.271Z,22.10
2018-09-03T08:04:41.657Z,22.20
2018-09-03T08:07:10.919Z,22.20
2018-09-03T08:09:39.502Z,22.30
2018-09-03T08:12:08.001Z,22.30
2018-09-03T08:14:36.362Z,22.30
2018-09-03T08:17:04.945Z,22.40
2018-09-03T08:19:33.323Z,22.40
2018-09-03T08:22:02.231Z,22.50
2018-09-03T08:24:30.606Z,22.60
2018-09-03T08:26:59.230Z,22.70
2018-09-03T08:29:27.559Z,22.80
2018-09-03T08:31:56.011Z,22.90
2018-09-03T08:34:25.489Z,23.10
2018-09-03T08:36:54.737Z,23.10
2018-09-03T08:39:23.551Z,23.20
2018-09-03T08:41:53.013Z,23.30
2018-09-03T08:44:22.597Z,23.40
2018-09-03T08:46:51.961Z,23.40
2018-09-03T08:49:20.872Z,23.50
2018-09-03T08:51:49.853Z,23.50
2018-09-03T08:54:18.559Z,23.50
2018-09-03T08:56:48.124Z,23.50
2018-09-03T08:59:16.791Z,23.50
2018-09-03T09:01:45.985Z,23.60
2018-09-03T09:04:14.826Z,23.70
2018-09-03T09:06:43.510Z,23.80
2018-09-03T09:09:12.937Z,23.90
2018-09-03T09:11:42.732Z,24.00
2018-09-03T09:14:12.178Z,24.10
2018-09-03T09:16:41.571Z,24.20
2018-09-03T09:19:10.647Z,24.20
2018-09-03T09:21:39.558Z,24.30
2018-09-03T09:24:09.054Z,24.40
2018-09-03T09:26:38.341Z,24.50
2018-09-03T09:29:07.758Z,24.60
2018-09-03T09:31:36.107Z,24.60
2018-09-03T09:34:04.631Z,24.80
2018-09-03T09:36:33.142Z,24.90
2018-09-03T09:39:01.828Z,24.90
2018-09-03T09:41:33.114Z,25.00
2018-09-03T09:44:02.601Z,25.10
2018-09-03T09:46:31.354Z,25.20
2018-09-03T09:48:59.804Z,25.30
2018-09-03T09:51:28.444Z,25.40
2018-09-03T09:53:56.938Z,25.50
2018-09-03T09:56:25.299Z,25.60
2018-09-03T09:58:53.872Z,25.50
2018-09-03T10:01:27.809Z,25.60
2018-09-03T10:03:56.203Z,25.60
2018-09-03T10:06:24.645Z,25.70
2018-09-03T10:08:53.347Z,25.70
2018-09-03T10:11:21.685Z,25.70
2018-09-03T10:13:50.142Z,25.80
2018-09-03T10:16:18.842Z,25.90
2018-09-03T10:18:47.260Z,26.00
2018-09-03T10:21:15.610Z,26.00
2018-09-03T10:23:44.011Z,26.00
2018-09-03T10:26:12.467Z,26.20
2018-09-03T10:28:41.167Z,26.20
2018-09-03T10:31:09.567Z,26.30
2018-09-03T10:33:37.946Z,26.40
2018-09-03T10:36:06.316Z,26.40
2018-09-03T10:38:34.738Z,26.40
2018-09-03T10:41:03.146Z,26.50
2018-09-03T10:43:31.674Z,26.50
2018-09-03T10:46:00.031Z,26.50
2018-09-03T10:48:28.514Z,26.40
2018-09-03T10:50:57.258Z,26.40
2018-09-03T10:53:26.306Z,26.30
2018-09-03T10:55:54.982Z,26.20
2018-09-03T10:58:24.039Z,26.10
2018-09-03T11:00:53.162Z,26.10
2018-09-03T11:03:22.614Z,26.00
2018-09-03T11:05:51.436Z,26.00
2018-09-03T11:08:20.479Z,26.00
2018-09-03T11:10:49.924Z,25.90
2018-09-03T11:13:19.417Z,25.80
2018-09-03T11:15:48.261Z,25.70
2018-09-03T11:18:17.554Z,25.70
2018-09-03T11:20:46.898Z,25.70
2018-09-03T11:23:15.633Z,25.70
2018-09-03T11:25:44.218Z,25.70
2018-09-03T11:28:13.364Z,25.70
2018-09-03T11:30:42.638Z,25.70
2018-09-03T11:33:12.090Z,25.70
2018-09-03T11:35:41.880Z,25.70
2018-09-03T11:38:11.211Z,25.70
2018-09-03T11:40:40.304Z,25.80
2018-09-03T11:43:09.673Z,25.80
2018-09-03T11:45:38.817Z,25.80
2018-09-03T11:48:07.635Z,25.90
2018-09-03T11:50:36.058Z,25.90
2018-09-03T11:53:04.618Z,25.90
2018-09-03T11:55:33.019Z,25.90
2018-09-03T11:58:01.452Z,25.90
2018-09-03T12:00:31.167Z,26.00
2018-09-03T12:03:00.007Z,26.00
2018-09-03T12:05:29.111Z,26.10
2018-09-03T12:07:57.491Z,26.30
2018-09-03T12:10:26.022Z,26.40
2018-09-03T12:12:54.537Z,26.70
2018-09-03T12:15:28.283Z,26.80
2018-09-03T12:17:56.715Z,26.90
2018-09-03T12:20:30.844Z,26.90
2018-09-03T12:22:59.425Z,26.90
2018-09-03T12:25:27.846Z,26.90
2018-09-03T12:27:56.648Z,26.80
2018-09-03T12:30:25.015Z,26.80
2018-09-03T12:32:53.453Z,26.70
2018-09-03T12:35:21.912Z,26.60
2018-09-03T12:37:50.287Z,26.60
2018-09-03T12:40:18.894Z,26.60
2018-09-03T12:42:47.414Z,26.50
2018-09-03T12:45:15.809Z,26.50
2018-09-03T12:47:44.339Z,26.50
2018-09-03T12:50:12.830Z,26.40
2018-09-03T12:52:41.220Z,26.40
2018-09-03T12:55:09.708Z,26.30
2018-09-03T12:57:38.161Z,26.30
2018-09-03T13:00:06.652Z,26.20
2018-09-03T13:02:39.421Z,26.20
2018-09-03T13:05:03.732Z,26.10
2018-09-03T13:07:32.184Z,26.00
2018-09-03T13:10:00.594Z,26.00
2018-09-03T13:12:29.052Z,26.00
2018-09-03T13:14:58.254Z,26.00
2018-09-03T13:17:26.772Z,26.00
2018-09-03T13:19:55.172Z,26.00
2018-09-03T13:22:23.618Z,26.00
2018-09-03T13:24:52.076Z,26.00
2018-09-03T13:27:20.466Z,26.00
2018-09-03T13:29:48.857Z,26.00
2018-09-03T13:32:17.343Z,26.00
2018-09-03T13:34:45.977Z,26.00
2018-09-03T13:37:14.336Z,26.10
2018-09-03T13:39:42.751Z,26.10
2018-09-03T13:42:11.325Z,26.10
2018-09-03T13:44:39.709Z,26.10
2018-09-03T13:47:08.174Z,26.10
2018-09-03T13:49:37.005Z,26.00
2018-09-03T13:52:06.397Z,26.00
2018-09-03T13:54:36.092Z,25.90
2018-09-03T13:57:05.224Z,25.90
2018-09-03T13:59:33.658Z,25.90
2018-09-03T14:02:02.273Z,25.90
2018-09-03T14:04:30.727Z,25.80
2018-09-03T14:06:59.426Z,25.80
2018-09-03T14:09:27.990Z,25.80
2018-09-03T14:11:56.461Z,25.90
2018-09-03T14:14:24.871Z,25.90
2018-09-03T14:16:53.355Z,25.90
2018-09-03T14:19:21.784Z,26.00
2018-09-03T14:21:50.153Z,26.00
2018-09-03T14:24:18.571Z,26.10
2018-09-03T14:26:47.449Z,26.20
2018-09-03T14:29:15.926Z,26.30
2018-09-03T14:31:44.333Z,26.50
2018-09-03T14:34:12.726Z,26.60
2018-09-03T14:36:41.246Z,26.60
2018-09-03T14:39:11.392Z,26.70
2018-09-03T14:41:40.116Z,26.70
2018-09-03T14:44:09.306Z,26.70
2018-09-03T14:46:37.723Z,26.60
2018-09-03T14:49:06.194Z,26.60
2018-09-03T14:51:34.670Z,26.50
2018-09-03T14:54:03.225Z,26.50
2018-09-03T14:56:31.668Z,26.40
2018-09-03T14:59:00.060Z,26.40
2018-09-03T15:01:28.451Z,26.30
2018-09-03T15:03:56.893Z,26.30
2018-09-03T15:06:25.256Z,26.20
2018-09-03T15:08:53.930Z,26.20
2018-09-03T15:11:22.297Z,26.20
2018-09-03T15:13:53.506Z,26.10
2018-09-03T15:16:21.935Z,26.10
2018-09-03T15:18:50.374Z,26.10
2018-09-03T15:21:18.886Z,26.10
2018-09-03T15:23:47.257Z,26.00
2018-09-03T15:26:16.023Z,26.00
2018-09-03T15:28:44.438Z,26.10
2018-09-03T15:31:12.836Z,26.00
2018-09-03T15:33:41.483Z,26.00
2018-09-03T15:36:10.240Z,26.00
2018-09-03T15:38:38.631Z,26.00
2018-09-03T15:41:07.704Z,26.00
2018-09-03T15:43:36.092Z,26.00
2018-09-03T15:46:05.479Z,26.10
2018-09-03T15:48:35.153Z,26.20
2018-09-03T15:51:03.866Z,26.20
2018-09-03T15:53:34.187Z,26.30
2018-09-03T15:56:04.491Z,26.30
2018-09-03T15:58:34.595Z,26.40
2018-09-03T16:01:03.668Z,26.40
2018-09-03T16:03:33.426Z,26.50
2018-09-03T16:06:02.221Z,26.50
2018-09-03T16:08:30.816Z,26.50
2018-09-03T16:10:59.869Z,26.40
2018-09-03T16:13:28.874Z,26.40
2018-09-03T16:15:57.855Z,26.40
2018-09-03T16:18:26.997Z,26.40
2018-09-03T16:20:55.901Z,26.50
2018-09-03T16:23:25.011Z,26.50
2018-09-03T16:25:54.221Z,26.50
2018-09-03T16:28:23.451Z,26.50
2018-09-03T16:30:52.988Z,26.50
2018-09-03T16:33:22.411Z,26.50
2018-09-03T16:35:51.344Z,26.40
2018-09-03T16:38:19.984Z,26.30
2018-09-03T16:40:48.361Z,26.30
2018-09-03T16:43:16.819Z,26.30
2018-09-03T16:45:45.495Z,26.20
2018-09-03T16:48:13.917Z,26.10
2018-09-03T16:50:42.401Z,26.10
2018-09-03T16:53:10.836Z,26.00
2018-09-03T16:55:39.366Z,26.00
2018-09-03T16:58:07.903Z,26.00
2018-09-03T17:00:36.307Z,25.90
2018-09-03T17:03:04.904Z,25.90
2018-09-03T17:05:33.389Z,25.90
2018-09-03T17:08:02.248Z,25.90
2018-09-03T17:10:30.877Z,25.80
2018-09-03T17:12:59.336Z,25.80
2018-09-03T17:15:27.746Z,25.80
2018-09-03T17:17:56.129Z,25.70
2018-09-03T17:20:24.649Z,25.70
2018-09-03T17:22:53.083Z,25.60
2018-09-03T17:25:22.457Z,25.60
2018-09-03T17:27:51.897Z,25.50
2018-09-03T17:30:21.623Z,25.40
2018-09-03T17:32:50.849Z,25.30
2018-09-03T17:35:19.934Z,25.30
2018-09-03T17:37:49.333Z,25.20
2018-09-03T17:40:18.491Z,25.20
2018-09-03T17:42:47.577Z,25.10
2018-09-03T17:45:16.934Z,25.00
2018-09-03T17:47:46.184Z,25.00
2018-09-03T17:50:15.273Z,24.90
2018-09-03T17:52:44.938Z,24.90
2018-09-03T17:55:13.837Z,24.80
2018-09-03T17:57:43.032Z,24.80
2018-09-03T18:00:12.645Z,24.70
2018-09-03T18:02:41.780Z,24.70
2018-09-03T18:05:11.390Z,24.60
2018-09-03T18:07:40.813Z,24.60
2018-09-03T18:10:09.620Z,24.60
2018-09-03T18:12:39.295Z,24.60
2018-09-03T18:15:08.767Z,24.60
2018-09-03T18:17:38.164Z,24.60
2018-09-03T18:20:07.205Z,24.50
2018-09-03T18:22:36.504Z,24.50
2018-09-03T18:25:05.515Z,24.50
2018-09-03T18:27:34.782Z,24.60
2018-09-03T18:30:03.750Z,24.50
2018-09-03T18:32:32.929Z,24.50
2018-09-03T18:35:02.478Z,24.50
2018-09-03T18:37:32.180Z,24.50
2018-09-03T18:40:01.949Z,24.50
2018-09-03T18:42:31.507Z,24.40
2018-09-03T18:45:00.721Z,24.40
2018-09-03T18:47:30.368Z,24.40
2018-09-03T18:49:59.900Z,24.40
2018-09-03T18:52:29.387Z,24.30
2018-09-03T18:54:59.620Z,24.30
2018-09-03T18:57:28.592Z,24.30
2018-09-03T18:59:57.228Z,24.20
2018-09-03T19:02:25.677Z,24.20
2018-09-03T19:04:54.408Z,24.20
2018-09-03T19:07:23.128Z,24.20
2018-09-03T19:09:51.726Z,24.20
2018-09-03T19:12:20.183Z,24.20
2018-09-03T19:14:48.946Z,24.10
2018-09-03T19:17:17.422Z,24.10
2018-09-03T19:19:46.006Z,24.10
2018-09-03T19:22:14.733Z,24.10
2018-09-03T19:24:43.557Z,24.10
2018-09-03T19:27:12.037Z,24.10
2018-09-03T19:29:40.858Z,24.00
2018-09-03T19:32:09.337Z,24.00
2018-09-03T19:34:37.806Z,24.00
2018-09-03T19:37:06.277Z,24.00
2018-09-03T19:39:34.828Z,23.90
2018-09-03T19:44:38.160Z,23.90
2018-09-03T19:47:06.663Z,23.90
2018-09-03T19:49:35.208Z,23.90
2018-09-03T19:52:03.788Z,23.90
2018-09-03T19:54:32.172Z,23.90
2018-09-03T19:57:00.517Z,23.90
2018-09-03T19:59:29.035Z,23.90
2018-09-03T20:01:57.548Z,23.90
2018-09-03T20:04:25.979Z,23.90
2018-09-03T20:06:54.510Z,23.90
2018-09-03T20:09:23.051Z,23.80
2018-09-03T20:11:51.586Z,23.90
2018-09-03T20:14:20.152Z,23.80
2018-09-03T20:16:48.640Z,23.80
2018-09-03T20:19:17.120Z,23.80
2018-09-03T20:21:45.595Z,23.80
2018-09-03T20:24:14.116Z,23.70
2018-09-03T20:26:42.545Z,23.70
2018-09-03T20:29:10.950Z,23.70
2018-09-03T20:31:39.420Z,23.70
2018-09-03T20:34:07.800Z,23.80
2018-09-03T20:36:36.349Z,23.80
2018-09-03T20:39:05.778Z,23.80
2018-09-03T20:41:34.218Z,23.80
2018-09-03T20:44:02.730Z,23.80
2018-09-03T20:46:31.219Z,23.80
2018-09-03T20:49:00.291Z,23.80
2018-09-03T20:51:29.045Z,23.70
2018-09-03T20:53:57.386Z,23.70
2018-09-03T20:56:26.091Z,23.70
2018-09-03T20:58:54.663Z,23.70
2018-09-03T21:01:23.080Z,23.60
2018-09-03T21:03:51.651Z,23.50
2018-09-03T21:06:20.056Z,23.50
2018-09-03T21:08:48.509Z,23.50
2018-09-03T21:11:16.975Z,23.50
2018-09-03T21:13:45.423Z,23.40
2018-09-03T21:16:13.860Z,23.40
2018-09-03T21:18:43.007Z,23.40
2018-09-03T21:21:11.489Z,23.30
2018-09-03T21:23:39.870Z,23.30
2018-09-03T21:26:08.252Z,23.30
2018-09-03T21:28:36.746Z,23.30
2018-09-03T21:31:05.123Z,23.30
2018-09-03T21:33:33.590Z,23.30
2018-09-03T21:36:02.157Z,23.30
2018-09-03T21:38:30.637Z,23.30
2018-09-03T21:40:59.164Z,23.30
2018-09-03T21:43:27.849Z,23.30
2018-09-03T21:45:56.629Z,23.30
2018-09-03T21:48:26.086Z,23.30
2018-09-03T21:50:55.039Z,23.40
2018-09-03T21:53:24.468Z,23.40
2018-09-03T21:55:53.131Z,23.40
2018-09-03T21:58:21.607Z,23.30
2018-09-03T22:00:50.078Z,23.30
2018-09-03T22:03:18.447Z,23.30
2018-09-03T22:05:46.910Z,23.20
2018-09-03T22:08:15.471Z,23.10
2018-09-03T22:10:44.087Z,23.10
2018-09-03T22:13:12.453Z,23.10
2018-09-03T22:15:40.951Z,23.10
2018-09-03T22:18:09.961Z,23.00
2018-09-03T22:20:38.653Z,23.00
2018-09-03T22:23:07.191Z,23.00
2018-09-03T22:25:36.076Z,22.90
2018-09-03T22:28:04.588Z,22.90
2018-09-03T22:30:34.003Z,22.90
2018-09-03T22:33:02.350Z,22.90
2018-09-03T22:35:30.747Z,22.80
2018-09-03T22:37:59.190Z,22.80
2018-09-03T22:40:27.716Z,22.80
2018-09-03T22:42:56.139Z,22.80
2018-09-03T22:45:24.584Z,22.80
2018-09-03T22:47:52.964Z,22.80
2018-09-03T22:50:21.395Z,22.80
2018-09-03T22:52:49.846Z,22.80
2018-09-03T22:55:18.466Z,22.80
2018-09-03T22:57:46.863Z,22.80
2018-09-03T23:00:15.308Z,22.80
2018-09-03T23:02:46.083Z,22.80
2018-09-03T23:05:14.625Z,22.80
2018-09-03T23:07:43.021Z,22.80
2018-09-03T23:10:11.455Z,22.80
2018-09-03T23:12:39.913Z,22.80
2018-09-03T23:15:09.027Z,22.80
2018-09-03T23:17:37.389Z,22.80
2018-09-03T23:20:05.826Z,22.80
2018-09-03T23:22:34.295Z,22.80
2018-09-03T23:25:02.722Z,22.80
2018-09-03T23:27:31.114Z,22.80
2018-09-03T23:29:59.676Z,22.80
2018-09-03T23:32:28.083Z,22.80
2018-09-03T23:34:56.509Z,22.80
2018-09-03T23:37:24.931Z,22.70
2018-09-03T23:39:53.734Z,22.70
2018-09-03T23:42:22.949Z,22.80
2018-09-03T23:44:51.294Z,22.80
2018-09-03T23:47:19.743Z,22.80
2018-09-03T23:49:48.236Z,22.80
2018-09-03T23:52:16.637Z,22.80
2018-09-03T23:54:45.182Z,22.80
2018-09-03T23:57:13.688Z,22.80
2018-09-03T23:59:42.052Z,22.80
